Flight Track Log - Related Links

Times and Time Zones

All times are in EDT time to prevent confusion due to time zone crossing. See the N123FT flight status page for this flight to view local times or setup timezone preferences in your user account.

Time Position Orientation Groundspeed Altitude Reporting Facility
EDT Latitude Longitude Course Direction KTS MPH feet Rate Location/Type
Tue 06:33:35 PM 37.6333 -122.3833 47° Northeast 162 186 1,600  Level Northern Cal TRACON
Tue 06:34:41 PM 37.6833 -122.3167 58° Northeast 247 284 5,400 3,143 Climbing Northern Cal TRACON
Tue 06:35:41 PM 37.7167 -122.2500 69° East 259 298 8,200 2,851 Climbing Northern Cal TRACON
Tue 06:38:03 PM 37.8025 -121.9697 70° East 341 392 15,000 2,851 Climbing Oakland Center
Tue 06:39:03 PM 37.8411 -121.8336 76° East 379 436 17,800 2,777 Climbing Oakland Center
Tue 06:40:04 PM 37.8714 -121.6839 80° East 412 474 20,600 2,550 Climbing Oakland Center
Tue 06:41:03 PM 37.8908 -121.5419 78° East 435 501 22,900 2,370 Climbing Oakland Center
Tue 06:42:03 PM 37.9186 -121.3789 78° East 457 526 25,300 2,200 Climbing Oakland Center
Tue 06:43:03 PM 37.9461 -121.2106 78° East 469 540 27,300 1,850 Climbing Oakland Center
Tue 06:44:03 PM 37.9756 -121.0314 78° East 494 568 29,000 1,700 Climbing Oakland Center
Tue 06:45:03 PM 38.0047 -120.8550 79° East 506 582 30,700 1,488 Climbing Oakland Center
Tue 06:46:04 PM 38.0336 -120.6703 78° East 512 589 32,000 1,100 Climbing Oakland Center
Tue 06:47:03 PM 38.0644 -120.4881 79° East 525 604 32,900 1,550 Climbing Oakland Center
Tue 06:48:04 PM 38.0925 -120.3086 79° East 525 604 35,100 2,250 Climbing Oakland Center
Tue 06:49:03 PM 38.1206 -120.1286 78° East 525 604 37,400 2,067 Climbing Oakland Center
Tue 06:50:03 PM 38.1486 -119.9542 80° East 520 598 39,200 1,700 Climbing Oakland Center
Tue 06:51:03 PM 38.1739 -119.7794 79° East 508 585 40,800 1,400 Climbing Oakland Center
Tue 06:52:03 PM 38.2011 -119.6044 81° East 503 579 42,000 850 Climbing Oakland Center
Tue 06:53:03 PM 38.2222 -119.4350 79° East 503 579 42,500 700 Climbing Oakland Center
Tue 06:54:03 PM 38.2489 -119.2597 79° East 497 572 43,400 750 Climbing Oakland Center
Tue 06:55:03 PM 38.2753 -119.0794 80° East 508 585 44,000 750 Climbing Oakland Center
Tue 06:56:03 PM 38.2994 -118.8986 79° East 513 590 44,900 500 Climbing Oakland Center
Tue 06:57:03 PM 38.3253 -118.7206 80° East 513 590 45,000 50 Climbing Oakland Center
Tue 06:58:03 PM 38.3508 -118.5344 79° East 513 590 45,000  Level Oakland Center
Tue 06:59:03 PM 38.3781 -118.3508 80° East 518 596 45,000  Level Oakland Center
Tue 07:00:03 PM 38.4031 -118.1669 79° East 523 602 45,000  Level Oakland Center
Tue 07:01:03 PM 38.4336 -117.9642 81° East 523 602 45,000  Level Oakland Center
Tue 07:01:46 PM 38.4469 -117.8506 81° East 529 609 45,000  Level Salt Lake Center
Tue 07:02:48 PM 38.4708 -117.6636 80° East 530 610 45,000  Level Salt Lake Center
Tue 07:03:50 PM 38.4953 -117.4786 81° East 528 608 45,000  Level Salt Lake Center
Tue 07:04:51 PM 38.5175 -117.2936 91° East 525 604 45,000  Level Salt Lake Center
Tue 07:05:53 PM 38.5150 -117.1028 92° East 534 615 45,000  Level Salt Lake Center
Tue 07:06:55 PM 38.5078 -116.8731 92° East 537 618 45,000  Level Salt Lake Center
Tue 07:07:56 PM 38.5014 -116.6853 92° East 530 610 45,000  Level Salt Lake Center
Tue 07:08:58 PM 38.4953 -116.4972 93° East 527 606 45,000  Level Salt Lake Center
Tue 07:10:00 PM 38.4883 -116.3100 92° East 527 606 45,000  Level Salt Lake Center
Tue 07:11:02 PM 38.4819 -116.1233 93° East 527 606 45,000  Level Salt Lake Center
Tue 07:12:03 PM 38.4742 -115.9372 93° East 525 604 45,000  Level Salt Lake Center
Tue 07:13:05 PM 38.4669 -115.7514 93° East 525 604 45,000  Level Salt Lake Center
Tue 07:14:07 PM 38.4594 -115.5683 93° East 519 597 45,000  Level Salt Lake Center
Tue 07:15:09 PM 38.4514 -115.3844 94° East 519 597 45,000  Level Salt Lake Center
Tue 07:16:10 PM 38.4403 -115.1697 93° East 524 603 45,000  Level Salt Lake Center
Tue 07:17:12 PM 38.4322 -114.9803 93° East 527 606 45,000  Level Salt Lake Center
Tue 07:18:14 PM 38.4233 -114.7906 94° East 527 606 45,000  Level Salt Lake Center
Tue 07:19:16 PM 38.4139 -114.6022 94° East 525 604 45,000  Level Salt Lake Center
Tue 07:20:18 PM 38.4039 -114.4147 101° East 523 602 45,000  Level Salt Lake Center
Tue 07:21:19 PM 38.3758 -114.2311 106° East 523 602 45,000  Level Salt Lake Center
Tue 07:22:21 PM 38.3344 -114.0492 107° East 526 605 45,000  Level Salt Lake Center
Tue 07:23:23 PM 38.2914 -113.8711 107° East 520 598 45,000  Level Salt Lake Center
Tue 07:24:25 PM 38.2500 -113.6953 107° East 515 593 45,000  Level Salt Lake Center
Tue 07:25:27 PM 38.2069 -113.5175 107° East 515 593 45,000  Level Salt Lake Center
Tue 07:26:28 PM 38.1650 -113.3400 108° East 515 593 45,000  Level Salt Lake Center
Tue 07:27:30 PM 38.1217 -113.1694 107° East 506 582 45,000  Level Salt Lake Center
Tue 07:28:32 PM 38.0797 -112.9978 107° East 501 577 45,000  Level Salt Lake Center
Tue 07:29:34 PM 38.0381 -112.8261 108° East 499 574 45,000  Level Salt Lake Center
Tue 07:30:36 PM 37.9944 -112.6528 108° East 501 577 45,000  Level Salt Lake Center
Tue 07:31:37 PM 37.9511 -112.4808 108° East 500 575 45,000  Level Salt Lake Center
Tue 07:32:39 PM 37.9072 -112.3103 108° East 499 574 45,000  Level Salt Lake Center
Tue 07:33:41 PM 37.8539 -112.1042 108° East 502 578 45,000  Level Salt Lake Center
Tue 07:34:43 PM 37.8092 -111.9319 108° East 505 581 45,000  Level Salt Lake Center
Tue 07:35:45 PM 37.7653 -111.7608 108° East 504 580 45,000  Level Salt Lake Center
Tue 07:36:47 PM 37.7225 -111.5925 108° East 501 577 45,000  Level Salt Lake Center
Tue 07:37:48 PM 37.6775 -111.4222 109° East 500 575 45,000  Level Salt Lake Center
Tue 07:38:50 PM 37.6325 -111.2544 108° East 500 575 45,000  Level Salt Lake Center
Tue 07:39:52 PM 37.5886 -111.0878 108° East 496 571 45,000  Level Salt Lake Center
Tue 07:40:54 PM 37.5439 -110.9192 108° East 497 572 45,000  Level Salt Lake Center
Tue 07:41:56 PM 37.4986 -110.7472 109° East 503 579 45,000  Level Salt Lake Center
Tue 07:42:57 PM 37.4525 -110.5789 109° East 504 580 45,000  Level Salt Lake Center
Tue 07:43:59 PM 37.4067 -110.4114 109° East 501 577 45,000  Level Salt Lake Center
Tue 07:45:01 PM 37.3608 -110.2425 109° East 501 577 45,000  Level Salt Lake Center
Tue 07:46:03 PM 37.3153 -110.0767 109° East 498 573 45,000  Level Salt Lake Center
Tue 07:47:06 PM 37.2656 -109.8911 108° East 487 560 45,000  Level Denver Center
Tue 07:48:06 PM 37.2261 -109.7433 109° East 493 567 45,000  Level Denver Center
Tue 07:49:06 PM 37.1806 -109.5800 110° East 493 567 45,000  Level Denver Center
Tue 07:50:06 PM 37.1292 -109.4033 110° East 493 567 45,000  Level Denver Center
Tue 07:51:06 PM 37.0831 -109.2428 109° East 487 560 45,000  Level Denver Center
Tue 07:52:06 PM 37.0447 -109.1008 110° East 487 560 45,000  Level Denver Center
Tue 07:53:06 PM 36.9983 -108.9383 110° East 492 566 45,000  Level Denver Center
Tue 07:54:06 PM 36.9458 -108.7600 110° East 492 566 45,000  Level Denver Center
Tue 07:55:06 PM 36.8992 -108.5975 110° East 492 566 45,000  Level Denver Center
Tue 07:56:06 PM 36.8519 -108.4381 112° Southeast 492 566 45,000  Level Denver Center
Tue 07:57:06 PM 36.8064 -108.2944 109° East 492 566 45,000  Level Denver Center
Tue 07:58:06 PM 36.7550 -108.1119 105° East 497 572 45,000  Level Denver Center
Tue 07:59:06 PM 36.7178 -107.9428 105° East 497 572 45,000  Level Denver Center
Tue 08:00:06 PM 36.6822 -107.7739 104° East 502 578 45,000  Level Denver Center
Tue 08:01:06 PM 36.6506 -107.6208 106° East 502 578 45,000  Level Denver Center
Tue 08:02:06 PM 36.6086 -107.4394 105° East 497 572 45,000  Level Denver Center
Tue 08:03:06 PM 36.5744 -107.2761 106° East 492 566 45,000  Level Denver Center
Tue 08:05:05 PM 36.5039 -106.9683 104° East 496 571 45,000  Level Albuquerque Center
Tue 08:06:05 PM 36.4700 -106.8058 105° East 496 571 45,000  Level Albuquerque Center
Tue 08:07:05 PM 36.4294 -106.6231 105° East 496 571 45,000  Level Albuquerque Center
Tue 08:08:05 PM 36.3928 -106.4581 106° East 496 571 45,000  Level Albuquerque Center
Tue 08:09:05 PM 36.3581 -106.3064 104° East 496 571 45,000  Level Albuquerque Center
Tue 08:10:05 PM 36.3253 -106.1392 107° East 496 571 45,000  Level Albuquerque Center
Tue 08:11:05 PM 36.2839 -105.9725 104° East 502 578 45,000  Level Albuquerque Center
Tue 08:12:05 PM 36.2506 -105.8081 106° East 495 570 45,000  Level Albuquerque Center
Tue 08:13:05 PM 36.2128 -105.6442 106° East 489 563 45,000  Level Albuquerque Center
Tue 08:14:05 PM 36.1750 -105.4803 106° East 489 563 45,000  Level Albuquerque Center
Tue 08:15:05 PM 36.1367 -105.3167 107° East 489 563 45,000  Level Albuquerque Center
Tue 08:16:05 PM 36.0986 -105.1608 106° East 484 557 45,000  Level Albuquerque Center
Tue 08:17:05 PM 36.0600 -104.9975 106° East 479 551 45,000  Level Albuquerque Center
Tue 08:18:05 PM 36.0186 -104.8189 106° East 484 557 45,000  Level Albuquerque Center
Tue 08:19:05 PM 35.9797 -104.6558 107° East 490 564 45,000 50 Level Albuquerque Center
Tue 08:20:05 PM 35.9406 -104.4931 107° East 485 558 45,100  Climbing Albuquerque Center
Tue 08:21:05 PM 35.9008 -104.3303 106° East 485 558 45,000 -50 Descending Albuquerque Center
Tue 08:22:05 PM 35.8633 -104.1678 107° East 491 565 45,000  Level Albuquerque Center
Tue 08:23:05 PM 35.8233 -104.0053 107° East 491 565 45,000  Level Albuquerque Center
Tue 08:24:05 PM 35.7833 -103.8431 107° East 491 565 45,000  Level Albuquerque Center
Tue 08:25:05 PM 35.7475 -103.6964 106° East 491 565 45,000  Level Albuquerque Center
Tue 08:26:05 PM 35.7092 -103.5369 107° East 491 565 45,000  Level Albuquerque Center
Tue 08:27:05 PM 35.6683 -103.3725 107° East 491 565 45,000  Level Albuquerque Center
Tue 08:28:05 PM 35.6275 -103.2111 106° East 491 565 45,000  Level Albuquerque Center
Tue 08:29:05 PM 35.5881 -103.0444 108° East 491 565 45,000  Level Albuquerque Center
Tue 08:30:05 PM 35.5419 -102.8683 107° East 491 565 45,000  Level Albuquerque Center
Tue 08:31:05 PM 35.5006 -102.7075 108° East 491 565 45,000  Level Albuquerque Center
Tue 08:32:05 PM 35.4614 -102.5617 108° East 491 565 45,000  Level Albuquerque Center
Tue 08:33:05 PM 35.4192 -102.3986 108° East 491 565 45,000  Level Albuquerque Center
Tue 08:34:05 PM 35.3769 -102.2356 109° East 491 565 45,000  Level Albuquerque Center
Tue 08:35:05 PM 35.3322 -102.0756 105° East 491 565 45,000  Level Albuquerque Center
Tue 08:36:05 PM 35.2928 -101.8897 109° East 496 571 45,000  Level Albuquerque Center
Tue 08:37:05 PM 35.2478 -101.7300 116° Southeast 496 571 45,000  Level Albuquerque Center
Tue 08:38:05 PM 35.1886 -101.5842 115° Southeast 514 592 45,000  Level Albuquerque Center
Tue 08:39:05 PM 35.1289 -101.4311 114° Southeast 514 592 45,000  Level Albuquerque Center
Tue 08:40:05 PM 35.0733 -101.2778 115° Southeast 507 583 45,000  Level Albuquerque Center
Tue 08:41:47 PM 34.9667 -101.0036 116° Southeast 496 571 45,000  Level Fort Worth Center
Tue 08:42:47 PM 34.9064 -100.8517 116° Southeast 505 581 45,000  Level Fort Worth Center
Tue 08:43:47 PM 34.8458 -100.7000 116° Southeast 494 568 45,000  Level Fort Worth Center
Tue 08:44:47 PM 34.7850 -100.5486 116° Southeast 494 568 45,000  Level Fort Worth Center
Tue 08:45:47 PM 34.7358 -100.4256 116° Southeast 494 568 45,000  Level Fort Worth Center
Tue 08:46:47 PM 34.6689 -100.2589 117° Southeast 494 568 45,000  Level Fort Worth Center
Tue 08:47:47 PM 34.6033 -100.1053 116° Southeast 501 577 45,000  Level Fort Worth Center
Tue 08:48:47 PM 34.5400 -99.9444 116° Southeast 495 570 45,000  Level Fort Worth Center
Tue 08:49:47 PM 34.4803 -99.7967 118° Southeast 495 570 45,000  Level Fort Worth Center
Tue 08:50:47 PM 34.4222 -99.6617 117° Southeast 500 575 45,000  Level Fort Worth Center
Tue 08:51:47 PM 34.3603 -99.5117 116° Southeast 500 575 45,000  Level Fort Worth Center
Tue 08:52:47 PM 34.3019 -99.3644 116° Southeast 493 567 45,000  Level Fort Worth Center
Tue 08:53:47 PM 34.2397 -99.2122 118° Southeast 493 567 45,000  Level Fort Worth Center
Tue 08:54:47 PM 34.1750 -99.0628 118° Southeast 492 566 45,000  Level Fort Worth Center
Tue 08:55:47 PM 34.1100 -98.9136 117° Southeast 499 574 45,000  Level Fort Worth Center
Tue 08:56:47 PM 34.0492 -98.7672 118° Southeast 493 567 45,000  Level Fort Worth Center
Tue 08:57:47 PM 33.9839 -98.6183 117° Southeast 498 573 45,000  Level Fort Worth Center
Tue 08:58:47 PM 33.9144 -98.4547 117° Southeast 493 567 45,000  Level Fort Worth Center
Tue 08:59:47 PM 33.8508 -98.3039 117° Southeast 498 573 45,000  Level Fort Worth Center
Tue 09:00:47 PM 33.7872 -98.1558 117° Southeast 498 573 45,000  Level Fort Worth Center
Tue 09:01:47 PM 33.7233 -98.0078 117° Southeast 490 564 45,000  Level Fort Worth Center
Tue 09:02:47 PM 33.6633 -97.8653 118° Southeast 495 570 45,000  Level Fort Worth Center
Tue 09:03:47 PM 33.5992 -97.7178 118° Southeast 495 570 45,000  Level Fort Worth Center
Tue 09:04:47 PM 33.5347 -97.5706 117° Southeast 495 570 45,000  Level Fort Worth Center
Tue 09:05:47 PM 33.4722 -97.4233 118° Southeast 495 570 45,000  Level Fort Worth Center
Tue 09:06:47 PM 33.4136 -97.2914 118° Southeast 501 577 45,000  Level Fort Worth Center
Tue 09:07:47 PM 33.3467 -97.1425 117° Southeast 496 571 45,000  Level Fort Worth Center
Tue 09:08:47 PM 33.2836 -96.9936 118° Southeast 496 571 45,000  Level Fort Worth Center
Tue 09:09:47 PM 33.2119 -96.8350 118° Southeast 496 571 45,000  Level Fort Worth Center
Tue 09:10:47 PM 33.1444 -96.6864 118° Southeast 496 571 45,000  Level Fort Worth Center
Tue 09:11:47 PM 33.0789 -96.5383 119° Southeast 502 578 45,000  Level Fort Worth Center
Tue 09:12:47 PM 33.0108 -96.3928 119° Southeast 494 568 45,000  Level Fort Worth Center
Tue 09:13:47 PM 32.9428 -96.2450 118° Southeast 499 574 45,000  Level Fort Worth Center
Tue 09:14:47 PM 32.8767 -96.0975 119° Southeast 499 574 45,000  Level Fort Worth Center
Tue 09:15:47 PM 32.8103 -95.9550 117° Southeast 493 567 45,000  Level Fort Worth Center
Tue 09:16:47 PM 32.7525 -95.8228 119° Southeast 493 567 45,000  Level Fort Worth Center
Tue 09:17:47 PM 32.6858 -95.6781 125° Southeast 500 575 45,000  Level Fort Worth Center
Tue 09:20:12 PM 32.4835 -95.3368 119° Southeast 491 565 45,000  Level FlightAware ADS-B
Tue 09:21:16 PM 32.4112 -95.1820 119° Southeast 509 586 45,000  Level FlightAware ADS-B
Tue 09:21:47 PM 32.3757 -95.1056 119° Southeast 513 590 45,000  Level FlightAware ADS-B
Tue 09:22:18 PM 32.3411 -95.0321 119° Southeast 511 588 45,000  Level FlightAware ADS-B
Tue 09:22:48 PM 32.3070 -94.9593 119° Southeast 501 577 45,000  Level FlightAware ADS-B
Tue 09:23:19 PM 32.2730 -94.8872 119° Southeast 502 578 45,000  Level FlightAware ADS-B
Tue 09:23:50 PM 32.2381 -94.8132 119° Southeast 505 581 45,000  Level FlightAware ADS-B
Tue 09:24:20 PM 32.2042 -94.7413 119° Southeast 491 565 45,000  Level FlightAware ADS-B
Tue 09:24:53 PM 32.1674 -94.6635 119° Southeast 507 583 45,000  Level FlightAware ADS-B
Tue 09:25:23 PM 32.1328 -94.5904 119° Southeast 516 594 45,000  Level FlightAware ADS-B
Tue 09:25:54 PM 32.0981 -94.5173 119° Southeast 507 583 45,000  Level FlightAware ADS-B
Tue 09:26:24 PM 32.0634 -94.4445 119° Southeast 509 586 45,000  Level FlightAware ADS-B
Tue 09:26:54 PM 32.0291 -94.3722 119° Southeast 499 574 45,000  Level FlightAware ADS-B
Tue 09:27:24 PM 31.9961 -94.3031 119° Southeast 449 517 45,000  Level FlightAware ADS-B
Tue 09:27:55 PM 31.9618 -94.2315 120° Southeast 502 578 45,000  Level FlightAware ADS-B
Tue 09:28:28 PM 31.9238 -94.1525 119° Southeast 497 572 45,000  Level FlightAware ADS-B
Tue 09:28:58 PM 31.8890 -94.0799 119° Southeast 506 582 45,000  Level FlightAware ADS-B
Tue 09:29:29 PM 31.8526 -94.0040 120° Southeast 513 590 45,000  Level FlightAware ADS-B
Tue 09:30:11 PM 31.8054 -93.9062 120° Southeast 513 590 45,000  Level FlightAware ADS-B
Tue 09:30:43 PM 31.7678 -93.8284 120° Southeast 515 593 45,000  Level FlightAware ADS-B
Tue 09:31:18 PM 31.7270 -93.7441 120° Southeast 512 589 45,000  Level FlightAware ADS-B
Tue 09:31:49 PM 31.6906 -93.6693 120° Southeast 511 588 45,000  Level FlightAware ADS-B
Tue 09:32:21 PM 31.6538 -93.5941 120° Southeast 508 585 45,000  Level FlightAware ADS-B
Tue 09:32:52 PM 31.6183 -93.5211 120° Southeast 489 563 45,000  Level FlightAware ADS-B
Tue 09:33:28 PM 31.5755 -93.4336 120° Southeast 508 585 45,000  Level FlightAware ADS-B
Tue 09:33:58 PM 31.5398 -93.3612 120° Southeast 512 589 45,000  Level FlightAware ADS-B
Tue 09:34:58 PM 31.4702 -93.2195 120° Southeast 508 585 45,000  Level FlightAware ADS-B
Tue 09:35:36 PM 31.4262 -93.1302 120° Southeast 518 596 45,000  Level FlightAware ADS-B
Tue 09:36:06 PM 31.3905 -93.0578 120° Southeast 510 587 45,000  Level FlightAware ADS-B
Tue 09:36:36 PM 31.3546 -92.9855 120° Southeast 492 566 45,000  Level FlightAware ADS-B
Tue 09:37:07 PM 31.3191 -92.9138 120° Southeast 507 583 45,000  Level FlightAware ADS-B
Tue 09:37:37 PM 31.2834 -92.8424 120° Southeast 508 585 45,000  Level FlightAware ADS-B
Tue 09:38:08 PM 31.2477 -92.7707 120° Southeast 514 592 45,000  Level FlightAware ADS-B
Tue 09:38:42 PM 31.2084 -92.6918 120° Southeast 507 583 45,000  Level FlightAware ADS-B
Tue 09:39:12 PM 31.1723 -92.6201 11° North 488 562 45,000  Level FlightAware ADS-B
Tue 09:39:14 PM 31.2050 -92.6125 130° Southeast 509 586 45,000  Level Houston Center
Tue 09:40:30 PM 31.0787 -92.4339 120° Southeast 509 586 45,000  Level FlightAware ADS-B
Tue 09:41:00 PM 31.0437 -92.3645 120° Southeast 461 531 45,000  Level FlightAware ADS-B
Tue 09:41:32 PM 31.0062 -92.2902 121° Southeast 515 593 45,000  Level FlightAware ADS-B
Tue 09:42:18 PM 30.9505 -92.1805 121° Southeast 509 586 45,000  Level FlightAware ADS-B
Tue 09:42:54 PM 30.9071 -92.0950 95° East 511 588 45,000  Level FlightAware ADS-B
Tue 09:43:26 PM 30.9011 -92.0192 125° Southeast 519 597 45,000  Level Houston Center
Tue 09:45:57 PM 30.6906 -91.6722 121° Southeast 492 566 45,000  Level FlightAware ADS-B
Tue 09:46:27 PM 30.6544 -91.6018 121° Southeast 502 578 45,000  Level FlightAware ADS-B
Tue 09:48:12 PM 30.5296 -91.3608 121° Southeast 498 573 45,000  Level FlightAware ADS-B
Tue 09:48:55 PM 30.4783 -91.2616 117° Southeast 499 574 45,000  Level FlightAware ADS-B
Tue 09:49:41 PM 30.4307 -91.1510 113° Southeast 498 573 45,000  Level FlightAware ADS-B
Tue 09:50:26 PM 30.3911 -91.0453 114° Southeast 471 542 45,000  Level FlightAware ADS-B
Tue 09:50:57 PM 30.3624 -90.9690 114° Southeast 497 572 45,000  Level FlightAware ADS-B
Tue 09:51:31 PM 30.3310 -90.8856 113° Southeast 496 571 45,000  Level FlightAware ADS-B
Tue 09:52:34 PM 30.2733 -90.7320 114° Southeast 498 573 45,000  Level FlightAware ADS-B
Tue 09:53:45 PM 30.2076 -90.5589 97° East 497 572 45,000  Level FlightAware ADS-B
Tue 09:54:26 PM 30.1969 -90.4547 118° Southeast 493 567 45,000  Level Houston Center
Tue 09:56:48 PM 30.0364 -90.1116 114° Southeast 503 579 45,000  Level FlightAware ADS-B
Tue 09:57:18 PM 30.0090 -90.0400 105° East 457 526 45,000  Level FlightAware ADS-B
Tue 09:58:26 PM 29.9692 -89.8653 114° Southeast 498 573 45,000  Level Houston Center
Tue 09:59:26 PM 29.9108 -89.7178 114° Southeast 498 573 45,000  Level Houston Center
Tue 10:00:26 PM 29.8542 -89.5703 114° Southeast 498 573 45,000  Level Houston Center
Tue 10:01:26 PM 29.7975 -89.4231 114° Southeast 498 573 45,000  Level Houston Center
Tue 10:02:26 PM 29.7408 -89.2758 115° Southeast 498 573 45,000  Level Houston Center
Tue 10:04:34 PM 29.6072 -88.9492 114° Southeast 506 582 45,000  Level Jacksonville Center
Tue 10:05:34 PM 29.5494 -88.8003 114° Southeast 511 588 45,000  Level Jacksonville Center
Tue 10:06:34 PM 29.4917 -88.6536 115° Southeast 511 588 45,000  Level Jacksonville Center
Tue 10:07:34 PM 29.4314 -88.5022 115° Southeast 511 588 45,000  Level Jacksonville Center
Tue 10:08:34 PM 29.3750 -88.3608 115° Southeast 511 588 45,000  Level Jacksonville Center
Tue 10:09:33 PM 29.3144 -88.2147 114° Southeast 504 580 45,000  Level Jacksonville Center
Tue 10:10:34 PM 29.2581 -88.0664 114° Southeast 504 580 45,000  Level Jacksonville Center
Tue 10:11:34 PM 29.1992 -87.9183 115° Southeast 504 580 45,000  Level Jacksonville Center
Tue 10:12:34 PM 29.1400 -87.7753 115° Southeast 504 580 45,000  Level Jacksonville Center
Tue 10:13:34 PM 29.0789 -87.6272 115° Southeast 504 580 45,000  Level Jacksonville Center
Tue 10:14:34 PM 29.0292 -87.5039 116° Southeast 490 564 45,000  Level Jacksonville Center
Tue 10:15:34 PM 28.9675 -87.3586 115° Southeast 488 562 45,000  Level Jacksonville Center
Tue 10:16:34 PM 28.9078 -87.2136 116° Southeast 499 574 45,000  Level Jacksonville Center
Tue 10:17:34 PM 28.8458 -87.0664 115° Southeast 499 574 45,000  Level Jacksonville Center
Tue 10:18:34 PM 28.7878 -86.9242 116° Southeast 499 574 45,000  Level Jacksonville Center
Tue 10:19:34 PM 28.7275 -86.7822 116° Southeast 499 574 45,000  Level Jacksonville Center
Tue 10:20:34 PM 28.6650 -86.6356 116° Southeast 499 574 45,000  Level Jacksonville Center
Tue 10:21:34 PM 28.6044 -86.4914 116° Southeast 499 574 45,000  Level Jacksonville Center
Tue 10:22:34 PM 28.5439 -86.3475 116° Southeast 499 574 45,000  Level Jacksonville Center
Tue 10:23:34 PM 28.4828 -86.2036 116° Southeast 499 574 45,000  Level Jacksonville Center
Tue 10:24:34 PM 28.4219 -86.0600 117° Southeast 499 574 45,000  Level Jacksonville Center
Tue 10:25:34 PM 28.3583 -85.9211 115° Southeast 493 567 45,000  Level Jacksonville Center
Tue 10:26:34 PM 28.2992 -85.7781 117° Southeast 493 567 45,000  Level Jacksonville Center
Tue 10:27:34 PM 28.2356 -85.6347 115° Southeast 498 573 45,000  Level Jacksonville Center
Tue 10:28:34 PM 28.1739 -85.4872 116° Southeast 498 573 45,000  Level Jacksonville Center
Tue 10:32:03 PM 27.9578 -84.9889 114° Southeast 513 590 45,000  Level Miami Center
Tue 10:33:03 PM 27.8939 -84.8297 110° East 517 595 45,000  Level Miami Center
Tue 10:34:02 PM 27.8456 -84.6808 113° Southeast 509 586 45,000  Level Miami Center
Tue 10:35:04 PM 27.7911 -84.5342 111° Southeast 504 580 45,000  Level Miami Center
Tue 10:36:03 PM 27.7403 -84.3878 114° Southeast 504 580 45,000  Level Miami Center
Tue 10:37:04 PM 27.6814 -84.2386 111° Southeast 504 580 45,000  Level Miami Center
Tue 10:38:04 PM 27.6306 -84.0903 113° Southeast 509 586 45,000  Level Miami Center
Tue 10:39:02 PM 27.5753 -83.9464 111° Southeast 509 586 45,000  Level Miami Center
Tue 10:40:03 PM 27.5239 -83.7981 113° Southeast 504 580 45,000  Level Miami Center
Tue 10:41:01 PM 27.4683 -83.6522 114° Southeast 504 580 45,000  Level Miami Center
Tue 10:42:02 PM 27.4106 -83.5039 112° Southeast 504 580 45,000  Level Miami Center
Tue 10:43:03 PM 27.3589 -83.3583 113° Southeast 504 580 45,000  Level Miami Center
Tue 10:44:01 PM 27.3028 -83.2106 112° Southeast 504 580 45,000  Level Miami Center
Tue 10:45:01 PM 27.2469 -83.0581 112° Southeast 509 586 45,000  Level Miami Center
Tue 10:46:02 PM 27.1928 -82.9106 114° Southeast 509 586 45,000  Level Miami Center
Tue 10:47:01 PM 27.1361 -82.7653 113° Southeast 509 586 45,000  Level Miami Center
Tue 10:48:04 PM 27.0794 -82.6178 114° Southeast 509 586 45,000  Level Miami Center
Tue 10:49:01 PM 27.0206 -82.4683 113° Southeast 509 586 45,000  Level Miami Center
Tue 10:50:02 PM 26.9636 -82.3186 114° Southeast 509 586 45,000  Level Miami Center
Tue 10:51:03 PM 26.9064 -82.1717 113° Southeast 509 586 45,000  Level Miami Center
Tue 10:52:03 PM 26.8492 -82.0225 113° Southeast 514 592 45,000  Level Miami Center
Tue 10:53:01 PM 26.7919 -81.8736 114° Southeast 514 592 45,000  Level Miami Center
Tue 10:54:04 PM 26.7322 -81.7222 112° Southeast 514 592 45,000  Level Miami Center
Tue 10:55:03 PM 26.6789 -81.5711 115° Southeast 519 597 45,000  Level Miami Center
Tue 10:56:01 PM 26.6189 -81.4247 113° Southeast 521 600 45,000  Level Miami Center
Tue 10:57:01 PM 26.5628 -81.2786 114° Southeast 516 594 45,000  Level Miami Center
Tue 10:58:03 PM 26.5103 -81.1444 114° Southeast 516 594 45,000 -488 Level Miami Center
Tue 10:59:04 PM 26.4461 -80.9844 114° Southeast 516 594 44,000 -942 Descending Miami Center
Tue 11:00:04 PM 26.3953 -80.8550 114° Southeast 507 583 43,100 -1,017 Descending Miami Center
Tue 11:01:02 PM 26.3308 -80.6953 114° Southeast 512 589 42,000 -1,059 Descending Miami Center
Tue 11:02:03 PM 26.2797 -80.5686 113° Southeast 507 583 41,000 -984 Descending Miami Center
Tue 11:03:04 PM 26.2208 -80.4161 113° Southeast 518 596 40,000 -1,017 Descending Miami Center
Tue 11:04:01 PM 26.1578 -80.2547 114° Southeast 518 596 39,000 -1,017 Descending Miami Center
Tue 11:05:02 PM 26.0967 -80.1050 115° Southeast 525 604 38,000 -1,050 Descending Miami Center
Tue 11:06:01 PM 26.0369 -79.9622 114° Southeast 520 598 36,900 -2,231 Descending Miami Center
Tue 11:07:03 PM 25.9794 -79.8197 114° Southeast 508 585 33,500 -3,372 Descending Miami Center
Tue 11:08:02 PM 25.9236 -79.6797 115° Southeast 502 578 30,100 -2,479 Descending Miami Center
Tue 11:09:04 PM 25.8675 -79.5444 115° Southeast 492 566 28,500 -1,550 Descending Miami Center
Tue 11:10:02 PM 25.8094 -79.4069 114° Southeast 487 560 27,000 -1,525 Descending Miami Center
Tue 11:11:02 PM 25.7553 -79.2744 115° Southeast 480 552 25,500 -1,475 Descending Miami Center
Tue 11:12:04 PM 25.7011 -79.1442 114° Southeast 470 541 24,000 -1,500 Descending Miami Center
Tue 11:13:02 PM 25.6506 -79.0164 114° Southeast 465 535 22,500 -1,373 Descending Miami Center
Tue 11:14:02 PM 25.6083 -78.9097 116° Southeast 448 516 21,300 -1,289 Descending Miami Center
Tue 11:15:03 PM 25.5556 -78.7914 114° Southeast 428 493 19,900 -1,350 Descending Miami Center
Tue 11:16:02 PM 25.5092 -78.6733 117° Southeast 423 487 18,600 -1,350 Descending Miami Center
Tue 11:17:03 PM 25.4561 -78.5597 114° Southeast 418 481 17,200 -1,279 Descending Miami Center
Tue 11:18:04 PM 25.4114 -78.4486 114° Southeast 402 463 16,000 -1,200 Descending Miami Center
Tue 11:19:03 PM 25.3686 -78.3422 116° Southeast 388 447 14,800 -1,271 Descending Miami Center
Tue 11:20:02 PM 25.3236 -78.2383 119° Southeast 383 441 13,500 -1,537 Descending Miami Center
Tue 11:21:04 PM 25.2744 -78.1411 119° Southeast 370 426 11,700 -1,742 Descending Miami Center

Login

Don't have an account? Register now (free) for customized features, flight alerts, and more!